createdAt,value
2022-12-17T00:02:32.574Z,58.20
2022-12-17T00:05:20.542Z,60.40
2022-12-17T00:08:15.418Z,68.20
2022-12-17T00:11:03.582Z,59.70
2022-12-17T00:13:52.032Z,61.20
2022-12-17T00:16:41.026Z,70.70
2022-12-17T00:19:28.526Z,66.80
2022-12-17T00:22:16.793Z,69.30
2022-12-17T00:25:04.982Z,66.40
2022-12-17T00:27:53.392Z,76.50
2022-12-17T00:30:42.043Z,67.00
2022-12-17T00:33:32.983Z,70.10
2022-12-17T00:36:21.532Z,73.50
2022-12-17T00:39:09.534Z,70.90
2022-12-17T00:41:59.590Z,69.40
2022-12-17T00:44:47.625Z,69.90
2022-12-17T00:47:36.264Z,72.90
2022-12-17T00:50:25.211Z,74.40
2022-12-17T00:53:14.714Z,71.40
2022-12-17T00:56:02.612Z,71.50
2022-12-17T00:58:50.660Z,73.80
2022-12-17T05:00:28.878Z,39.40
2022-12-17T05:03:24.348Z,46.90
2022-12-17T05:06:11.778Z,49.80
2022-12-17T05:08:59.523Z,51.70
2022-12-17T05:11:48.045Z,45.90
2022-12-17T05:14:37.346Z,51.60
2022-12-17T05:17:26.146Z,55.00
2022-12-17T05:20:14.597Z,44.10
2022-12-17T05:23:02.069Z,53.80
2022-12-17T05:25:50.531Z,47.20
2022-12-17T05:28:38.625Z,48.00
2022-12-17T05:31:27.049Z,52.30
2022-12-17T05:34:15.162Z,58.20
2022-12-17T05:37:03.395Z,52.00
2022-12-17T05:39:51.776Z,52.20
2022-12-17T05:42:39.987Z,54.10
2022-12-17T05:45:29.173Z,55.60
2022-12-17T05:48:18.437Z,61.20
2022-12-17T05:51:10.608Z,55.70
2022-12-17T05:53:58.915Z,47.10
2022-12-17T05:56:47.222Z,56.10
2022-12-17T05:59:34.970Z,55.60
2022-12-17T06:02:22.617Z,56.10
2022-12-17T06:05:10.144Z,56.40
2022-12-17T06:07:58.800Z,47.90
2022-12-17T06:10:58.148Z,59.20
2022-12-17T06:13:46.243Z,56.10
2022-12-17T06:16:33.806Z,64.00
2022-12-17T06:19:21.544Z,53.90
2022-12-17T06:22:09.950Z,52.40
2022-12-17T06:24:58.357Z,57.80
2022-12-17T06:27:46.457Z,49.50
2022-12-17T06:30:35.170Z,52.30
2022-12-17T06:33:28.976Z,58.30
2022-12-17T06:36:21.995Z,53.60
2022-12-17T06:39:12.128Z,51.10
2022-12-17T06:42:04.159Z,55.80
2022-12-17T06:44:53.838Z,50.00
2022-12-17T06:47:41.558Z,55.40
2022-12-17T06:50:29.718Z,50.70
2022-12-17T06:53:23.568Z,51.40
2022-12-17T06:56:12.238Z,50.60
2022-12-17T06:59:00.015Z,52.60
2022-12-17T07:01:48.498Z,208.90
2022-12-17T07:04:35.930Z,120.70
2022-12-17T07:07:23.678Z,133.40
2022-12-17T07:10:14.331Z,102.90
2022-12-17T07:13:03.041Z,117.30
2022-12-17T07:15:51.058Z,80.10
2022-12-17T07:18:39.278Z,59.60
2022-12-17T07:21:28.011Z,64.50
2022-12-17T07:24:16.536Z,66.40
2022-12-17T07:27:03.873Z,58.30
2022-12-17T07:29:51.977Z,62.50
2022-12-17T07:32:40.141Z,153.10
2022-12-17T07:35:28.120Z,192.20
2022-12-17T07:38:20.539Z,169.30
2022-12-17T07:41:08.145Z,321.40
2022-12-17T07:43:55.942Z,1398.70
2022-12-17T07:46:42.816Z,524.40
2022-12-17T07:49:29.596Z,236.40
2022-12-17T07:52:19.936Z,449.60
2022-12-17T07:55:06.766Z,497.30
2022-12-17T07:57:54.514Z,600.40
2022-12-17T08:00:48.992Z,519.80
2022-12-17T08:03:37.508Z,867.10
2022-12-17T08:06:25.791Z,619.30
2022-12-17T08:09:13.453Z,903.00
2022-12-17T08:12:01.000Z,527.20
2022-12-17T08:14:48.762Z,338.70
2022-12-17T08:17:36.644Z,270.90
2022-12-17T08:20:25.472Z,478.90
2022-12-17T08:23:20.249Z,132.60
2022-12-17T08:26:08.605Z,128.60
2022-12-17T08:28:55.777Z,385.90
2022-12-17T08:31:44.429Z,187.60
2022-12-17T08:34:34.177Z,459.80
2022-12-17T08:37:23.289Z,93.30
2022-12-17T08:40:12.408Z,262.90
2022-12-17T08:42:59.909Z,270.20
2022-12-17T08:45:48.633Z,198.40
2022-12-17T08:48:37.748Z,168.60
2022-12-17T08:51:26.653Z,103.30
2022-12-17T08:54:14.451Z,249.40
2022-12-17T08:57:04.116Z,251.90
2022-12-17T08:59:52.109Z,298.90
2022-12-17T09:02:39.587Z,92.80
2022-12-17T09:05:27.469Z,64.40
2022-12-17T09:08:23.528Z,50.60
2022-12-17T09:11:11.818Z,88.60
2022-12-17T09:13:59.155Z,140.60
2022-12-17T09:16:46.816Z,181.30
2022-12-17T09:19:34.127Z,76.10
2022-12-17T09:22:21.367Z,167.40
2022-12-17T09:25:08.123Z,295.50
2022-12-17T09:27:55.241Z,115.20
2022-12-17T09:30:42.241Z,138.30
2022-12-17T09:33:36.333Z,77.50
2022-12-17T09:36:25.813Z,77.10
2022-12-17T09:39:13.670Z,121.40
2022-12-17T09:42:12.306Z,62.30
2022-12-17T09:45:18.170Z,101.10
2022-12-17T09:48:21.854Z,77.80
2022-12-17T09:51:10.674Z,111.20
2022-12-17T09:54:10.346Z,53.80
2022-12-17T09:57:01.549Z,171.10
2022-12-17T09:59:53.327Z,64.60
2022-12-17T10:02:45.123Z,113.20
2022-12-17T10:05:42.805Z,62.70
2022-12-17T10:08:40.118Z,87.20
2022-12-17T10:11:43.499Z,80.10
2022-12-17T10:14:38.967Z,72.10
2022-12-17T10:17:40.182Z,54.90
2022-12-17T10:20:41.306Z,76.30
2022-12-17T10:23:28.123Z,49.60
2022-12-17T10:26:16.640Z,143.80
2022-12-17T10:29:04.384Z,78.60
2022-12-17T10:31:52.586Z,51.70
2022-12-17T10:34:40.313Z,70.10
2022-12-17T10:37:38.131Z,62.90
2022-12-17T10:40:39.161Z,100.70
2022-12-17T10:43:43.720Z,210.30
2022-12-17T10:46:31.670Z,180.20
2022-12-17T10:49:24.462Z,182.20
2022-12-17T10:52:18.615Z,63.70
2022-12-17T10:55:17.023Z,109.90
2022-12-17T10:58:07.210Z,161.10
2022-12-17T11:00:59.459Z,240.00
2022-12-17T11:03:55.777Z,180.10
2022-12-17T11:06:49.818Z,139.40
2022-12-17T11:12:41.260Z,306.50
2022-12-17T11:15:40.168Z,559.40
2022-12-17T11:18:37.718Z,151.80
2022-12-17T11:21:45.197Z,191.40
2022-12-17T11:24:40.089Z,79.00
2022-12-17T11:27:29.562Z,539.90
2022-12-17T11:30:17.004Z,311.50
2022-12-17T11:33:32.477Z,140.90
2022-12-17T11:36:53.451Z,376.00
2022-12-17T11:40:16.850Z,195.90
2022-12-17T11:43:41.315Z,89.40
2022-12-17T11:46:35.765Z,107.60
2022-12-17T11:49:42.398Z,225.40
2022-12-17T11:53:01.641Z,84.90
2022-12-17T11:56:09.973Z,180.60
2022-12-17T11:59:17.944Z,203.20
2022-12-17T12:02:19.377Z,70.70
2022-12-17T12:05:37.114Z,151.90
2022-12-17T12:08:38.317Z,66.60
2022-12-17T12:11:36.500Z,38.00
2022-12-17T12:14:42.742Z,110.20
2022-12-17T12:17:50.457Z,64.50
2022-12-17T12:21:02.663Z,66.60
2022-12-17T12:24:05.271Z,71.10
2022-12-17T12:27:03.441Z,61.20
2022-12-17T12:30:00.881Z,49.70
2022-12-17T12:32:51.542Z,86.50
2022-12-17T12:35:43.639Z,112.70
2022-12-17T12:38:47.779Z,76.30
2022-12-17T12:45:24.443Z,81.60
2022-12-17T12:48:22.700Z,108.10
2022-12-17T12:51:23.347Z,79.60
2022-12-17T12:54:21.777Z,25.40
2022-12-17T12:57:09.103Z,43.90
2022-12-17T12:59:56.931Z,30.50
2022-12-17T13:02:49.280Z,38.20
2022-12-17T13:05:34.520Z,37.90
2022-12-17T13:08:08.531Z,63.90
2022-12-17T13:10:38.445Z,35.90
2022-12-17T13:13:18.516Z,34.20
2022-12-17T13:16:15.460Z,35.10
2022-12-17T13:18:43.502Z,56.00
2022-12-17T13:21:17.535Z,41.20
2022-12-17T13:23:45.656Z,33.40
2022-12-17T13:26:18.442Z,25.40
2022-12-17T13:29:20.364Z,37.90
2022-12-17T13:32:40.259Z,31.10
2022-12-17T13:35:43.771Z,32.30
2022-12-17T13:38:33.554Z,57.70
2022-12-17T13:41:17.168Z,51.40
2022-12-17T13:44:02.034Z,48.00
2022-12-17T13:46:46.716Z,36.20
2022-12-17T13:49:28.471Z,38.00
2022-12-17T13:52:18.351Z,35.50
2022-12-17T13:54:47.910Z,27.50
2022-12-17T13:57:19.741Z,31.30
2022-12-17T13:59:52.530Z,21.50
2022-12-17T14:02:36.922Z,28.00
2022-12-17T14:05:43.053Z,29.00
2022-12-17T14:08:19.813Z,29.50
2022-12-17T14:10:53.331Z,33.10
2022-12-17T14:15:53.031Z,30.40
2022-12-17T14:18:22.887Z,41.40
2022-12-17T14:20:56.009Z,38.10
2022-12-17T14:23:31.026Z,38.10
2022-12-17T14:26:00.097Z,34.90
2022-12-17T14:28:37.804Z,37.20
2022-12-17T14:31:28.568Z,32.60
2022-12-17T14:34:11.793Z,28.00
2022-12-17T14:36:44.464Z,29.10
2022-12-17T14:39:20.012Z,28.80
2022-12-17T14:42:07.515Z,29.30
2022-12-17T14:44:38.537Z,481.70
2022-12-17T14:47:27.016Z,148.10
2022-12-17T14:50:00.595Z,222.80
2022-12-17T14:52:37.683Z,482.60
2022-12-17T14:55:25.406Z,178.20
2022-12-17T14:58:07.974Z,75.90
2022-12-17T15:00:44.150Z,200.90
2022-12-17T15:03:17.456Z,50.00
2022-12-17T15:05:55.698Z,116.80
2022-12-17T15:08:24.606Z,343.70
2022-12-17T15:10:56.556Z,201.50
2022-12-17T15:13:25.064Z,70.30
2022-12-17T15:15:53.993Z,101.20
2022-12-17T15:18:23.010Z,62.00
2022-12-17T15:20:51.203Z,404.10
2022-12-17T15:23:23.182Z,62.10
2022-12-17T15:25:53.581Z,55.60
2022-12-17T15:28:23.033Z,59.40
2022-12-17T15:30:51.311Z,31.30
2022-12-17T15:33:19.783Z,39.80
2022-12-17T15:35:48.799Z,59.70
2022-12-17T15:38:17.196Z,39.90
2022-12-17T15:40:45.277Z,70.30
2022-12-17T15:43:13.862Z,41.90
2022-12-17T15:45:50.618Z,29.40
2022-12-17T15:48:21.579Z,57.20
2022-12-17T15:50:49.934Z,63.30
2022-12-17T15:53:18.992Z,105.30
2022-12-17T15:55:47.257Z,50.40
2022-12-17T15:58:16.502Z,62.20
2022-12-17T16:00:44.675Z,60.30
2022-12-17T16:03:13.047Z,59.60
2022-12-17T16:05:41.471Z,33.80
2022-12-17T16:08:09.698Z,27.60
2022-12-17T16:10:38.520Z,30.30
2022-12-17T16:13:07.480Z,29.80
2022-12-17T16:15:35.854Z,26.90
2022-12-17T16:18:04.213Z,29.20
2022-12-17T16:20:32.730Z,24.70
2022-12-17T16:23:01.391Z,23.10
2022-12-17T16:25:30.387Z,33.30
2022-12-17T16:27:59.438Z,30.40
2022-12-17T16:30:28.458Z,22.90
2022-12-17T16:32:59.231Z,20.20
2022-12-17T16:35:30.697Z,33.90
2022-12-17T16:37:58.836Z,23.20
2022-12-17T16:40:29.452Z,36.50
2022-12-17T16:42:57.608Z,56.50
2022-12-17T16:45:25.720Z,20.80
2022-12-17T16:47:53.945Z,27.40
2022-12-17T16:50:22.889Z,26.40
2022-12-17T16:52:51.981Z,35.50
2022-12-17T16:55:21.058Z,34.50
2022-12-17T16:57:49.384Z,22.40
2022-12-17T17:00:17.808Z,23.30
2022-12-17T17:02:53.011Z,30.10
2022-12-17T17:05:22.018Z,34.40
2022-12-17T17:07:51.120Z,51.80
2022-12-17T17:10:20.058Z,32.10
2022-12-17T17:12:51.886Z,29.90
2022-12-17T17:15:23.966Z,34.50
2022-12-17T17:17:53.864Z,29.90
2022-12-17T17:20:25.250Z,30.40
2022-12-17T17:22:57.056Z,25.00
2022-12-17T17:25:38.531Z,29.10
2022-12-17T17:28:13.780Z,30.70
2022-12-17T17:30:42.964Z,27.90
2022-12-17T17:33:12.260Z,33.40
2022-12-17T17:35:41.097Z,38.40
2022-12-17T17:38:10.227Z,36.50
2022-12-17T17:40:39.566Z,44.70
2022-12-17T17:43:08.472Z,33.30
2022-12-17T17:45:41.033Z,38.50
2022-12-17T17:48:10.413Z,32.00
2022-12-17T17:50:41.860Z,33.90
2022-12-17T17:53:10.832Z,36.90
2022-12-17T17:55:39.632Z,36.10
2022-12-17T17:58:11.567Z,31.80
2022-12-17T18:00:40.674Z,38.40
2022-12-17T18:03:09.760Z,30.70
2022-12-17T18:05:45.138Z,37.20
2022-12-17T18:08:14.272Z,51.70
2022-12-17T18:10:44.253Z,36.20
2022-12-17T18:13:31.920Z,35.90
2022-12-17T18:16:02.074Z,33.00
2022-12-17T18:18:30.612Z,36.30
2022-12-17T18:21:04.752Z,35.50
2022-12-17T18:23:36.082Z,41.00
2022-12-17T18:26:12.996Z,57.70
2022-12-17T18:28:45.187Z,41.30
2022-12-17T18:31:22.680Z,108.70
2022-12-17T18:33:55.804Z,583.70
2022-12-17T18:36:30.772Z,693.70
2022-12-17T18:39:02.605Z,311.40
2022-12-17T18:41:51.247Z,235.00
2022-12-17T18:44:21.154Z,184.30
2022-12-17T18:46:50.619Z,329.70
2022-12-17T18:49:21.933Z,77.10
2022-12-17T18:51:53.179Z,78.60
2022-12-17T18:54:28.264Z,42.20
2022-12-17T18:57:02.139Z,357.80
2022-12-17T18:59:32.111Z,241.30
2022-12-17T19:02:00.894Z,398.40
2022-12-17T19:04:29.061Z,88.90
2022-12-17T19:06:57.071Z,456.10
2022-12-17T19:09:29.511Z,106.90
2022-12-17T19:11:59.075Z,394.30
2022-12-17T19:14:28.448Z,165.90
2022-12-17T19:16:58.523Z,52.40
2022-12-17T19:19:27.907Z,45.40
2022-12-17T19:22:00.379Z,40.00
2022-12-17T19:24:29.972Z,43.30
2022-12-17T19:26:59.740Z,110.30
2022-12-17T19:29:29.010Z,61.80
2022-12-17T19:32:00.944Z,92.00
2022-12-17T19:34:30.164Z,68.40
2022-12-17T19:36:59.210Z,111.50
2022-12-17T19:39:27.713Z,79.80
2022-12-17T19:41:56.077Z,104.10
2022-12-17T19:44:25.546Z,249.90
2022-12-17T19:46:54.784Z,126.20
2022-12-17T19:49:23.582Z,226.80
2022-12-17T19:51:51.884Z,196.30
2022-12-17T19:54:20.269Z,115.00
2022-12-17T19:56:49.487Z,173.10
2022-12-17T19:59:17.931Z,159.90
2022-12-17T20:01:49.886Z,73.60
2022-12-17T20:04:19.347Z,86.70
2022-12-17T20:06:48.071Z,65.10
2022-12-17T20:09:17.645Z,150.90
2022-12-17T20:11:46.218Z,136.30
2022-12-17T20:14:17.935Z,76.50
2022-12-17T20:16:52.538Z,106.30
2022-12-17T20:19:26.632Z,102.20
2022-12-17T20:21:55.677Z,87.80
2022-12-17T20:24:30.815Z,130.60
2022-12-17T20:27:01.247Z,65.10
2022-12-17T20:29:30.160Z,90.10
2022-12-17T20:31:58.806Z,70.40
2022-12-17T20:34:28.287Z,69.50
2022-12-17T20:36:57.139Z,69.70
2022-12-17T20:39:28.188Z,67.20
2022-12-17T20:41:57.557Z,79.00
2022-12-17T20:44:26.675Z,65.00
2022-12-17T20:46:55.428Z,64.20
2022-12-17T20:49:23.517Z,76.60
2022-12-17T20:51:52.660Z,85.80
2022-12-17T20:54:22.062Z,107.90
2022-12-17T20:56:50.582Z,70.50
2022-12-17T20:59:20.043Z,88.30
2022-12-17T21:01:52.999Z,80.00
2022-12-17T21:04:24.521Z,91.30
2022-12-17T21:06:53.211Z,68.80
2022-12-17T21:09:22.802Z,125.00
2022-12-17T21:11:51.577Z,91.20
2022-12-17T21:14:21.290Z,80.50
2022-12-17T21:16:49.502Z,78.30
2022-12-17T21:19:20.278Z,70.60
2022-12-17T21:21:49.089Z,66.70
2022-12-17T21:24:17.488Z,64.90
2022-12-17T21:26:47.452Z,65.90
2022-12-17T21:29:19.963Z,71.80
2022-12-17T21:31:51.706Z,73.90
2022-12-17T21:34:22.547Z,58.60
2022-12-17T21:36:52.753Z,53.20
2022-12-17T21:39:22.467Z,56.50
2022-12-17T21:42:14.299Z,63.40
2022-12-17T21:44:42.665Z,64.70
2022-12-17T21:47:14.206Z,93.70
2022-12-17T21:49:44.462Z,115.50
2022-12-17T21:52:13.750Z,94.40
2022-12-17T21:54:42.239Z,175.10
2022-12-17T21:57:12.319Z,107.40
2022-12-17T21:59:41.938Z,91.10
2022-12-17T22:02:11.458Z,88.10
2022-12-17T22:04:40.908Z,78.80
2022-12-17T22:07:12.784Z,72.80
2022-12-17T22:10:30.447Z,72.30
2022-12-17T22:12:57.015Z,55.00
2022-12-17T22:15:28.112Z,73.60
2022-12-17T22:18:01.190Z,70.90
2022-12-17T22:20:30.626Z,100.60
2022-12-17T22:22:59.528Z,76.10
2022-12-17T22:25:28.851Z,71.40
2022-12-17T22:27:57.579Z,67.90
2022-12-17T22:30:44.976Z,61.60
2022-12-17T22:33:33.729Z,58.40
2022-12-17T22:38:32.784Z,71.10
2022-12-17T22:41:05.141Z,52.20
2022-12-17T22:44:37.549Z,68.30
2022-12-17T22:44:54.567Z,59.20
2022-12-17T22:47:26.625Z,73.30
2022-12-17T22:49:55.667Z,69.10
2022-12-17T22:52:25.338Z,71.30
2022-12-17T22:54:55.157Z,72.50
2022-12-17T22:57:36.431Z,65.90
2022-12-17T23:00:14.408Z,65.00
2022-12-17T23:02:43.247Z,66.50
2022-12-17T23:05:12.245Z,63.50
2022-12-17T23:07:41.560Z,60.10
2022-12-17T23:10:09.940Z,60.80
2022-12-17T23:12:57.188Z,69.00
2022-12-17T23:15:31.315Z,58.20
2022-12-17T23:18:02.235Z,68.10
2022-12-17T23:20:33.210Z,75.70
2022-12-17T23:23:03.299Z,61.30
2022-12-17T23:25:32.701Z,61.60
2022-12-17T23:28:01.843Z,56.10
2022-12-17T23:30:30.886Z,62.40
2022-12-17T23:32:59.974Z,57.70
2022-12-17T23:35:28.881Z,57.40
2022-12-17T23:37:58.269Z,58.20
2022-12-17T23:40:27.165Z,62.20
2022-12-17T23:42:57.747Z,58.60
2022-12-17T23:45:26.472Z,60.50
2022-12-17T23:47:57.721Z,54.60
2022-12-17T23:50:26.633Z,60.40
2022-12-17T23:52:54.710Z,61.30
2022-12-17T23:55:23.836Z,51.60
2022-12-17T23:57:57.369Z,57.30
